createdAt,value
2022-10-20T00:01:53.570Z,5.97
2022-10-20T00:04:20.268Z,5.53
2022-10-20T00:06:46.869Z,5.70
2022-10-20T00:09:13.768Z,6.00
2022-10-20T00:11:40.325Z,6.13
2022-10-20T00:14:07.003Z,6.37
2022-10-20T00:16:36.874Z,5.93
2022-10-20T00:19:03.953Z,5.77
2022-10-20T00:21:31.657Z,5.63
2022-10-20T00:24:02.159Z,6.03
2022-10-20T00:26:30.313Z,6.50
2022-10-20T00:28:57.506Z,5.07
2022-10-20T00:31:26.364Z,5.77
2022-10-20T00:33:53.591Z,5.60
2022-10-20T00:36:22.191Z,5.00
2022-10-20T00:38:49.971Z,5.83
2022-10-20T00:41:19.738Z,5.33
2022-10-20T00:43:52.026Z,5.03
2022-10-20T00:46:24.500Z,5.57
2022-10-20T00:48:59.473Z,5.07
2022-10-20T00:51:29.083Z,5.60
2022-10-20T00:54:08.261Z,5.60
2022-10-20T00:56:36.257Z,5.47
2022-10-20T00:59:04.075Z,5.20
2022-10-20T01:01:31.721Z,5.40
2022-10-20T01:03:59.069Z,5.73
2022-10-20T01:06:26.298Z,5.20
2022-10-20T01:08:55.871Z,5.50
2022-10-20T01:11:41.415Z,5.70
2022-10-20T01:14:18.299Z,5.00
2022-10-20T01:17:16.702Z,5.97
2022-10-20T01:20:17.355Z,5.40
2022-10-20T01:23:08.920Z,5.60
2022-10-20T01:25:50.645Z,5.40
2022-10-20T01:28:36.907Z,5.70
2022-10-20T01:31:14.592Z,5.00
2022-10-20T01:33:54.096Z,5.70
2022-10-20T01:36:39.817Z,5.20
2022-10-20T01:39:16.476Z,5.60
2022-10-20T01:41:59.536Z,5.37
2022-10-20T01:44:29.568Z,5.50
2022-10-20T01:46:58.539Z,5.70
2022-10-20T01:49:26.405Z,5.20
2022-10-20T01:51:53.522Z,5.17
2022-10-20T01:54:26.516Z,5.80
2022-10-20T01:57:18.009Z,5.40
2022-10-20T02:00:14.753Z,5.53
2022-10-20T02:03:06.012Z,5.80
2022-10-20T02:05:46.165Z,5.37
2022-10-20T02:08:19.896Z,5.37
2022-10-20T02:10:50.477Z,5.20
2022-10-20T02:13:19.959Z,5.90
2022-10-20T02:15:53.648Z,5.17
2022-10-20T02:18:25.586Z,5.57
2022-10-20T02:20:56.730Z,5.60
2022-10-20T02:23:23.560Z,5.70
2022-10-20T02:25:52.986Z,5.60
2022-10-20T02:28:21.804Z,5.57
2022-10-20T02:30:48.660Z,5.93
2022-10-20T02:33:17.050Z,5.40
2022-10-20T02:35:51.807Z,5.07
2022-10-20T02:38:18.392Z,5.37
2022-10-20T02:40:45.220Z,5.20
2022-10-20T02:43:14.656Z,5.50
2022-10-20T02:45:41.278Z,4.67
2022-10-20T02:48:11.303Z,4.90
2022-10-20T02:50:38.800Z,5.47
2022-10-20T02:53:06.143Z,5.43
2022-10-20T02:55:32.777Z,5.37
2022-10-20T02:57:59.323Z,5.60
2022-10-20T03:00:29.506Z,4.90
2022-10-20T03:02:56.239Z,5.00
2022-10-20T03:05:23.376Z,5.10
2022-10-20T03:07:50.221Z,4.80
2022-10-20T03:10:16.770Z,6.07
2022-10-20T03:12:43.288Z,5.10
2022-10-20T03:15:10.263Z,4.97
2022-10-20T03:17:36.995Z,5.60
2022-10-20T03:20:05.872Z,4.70
2022-10-20T03:22:32.405Z,5.57
2022-10-20T03:24:58.997Z,5.57
2022-10-20T03:27:25.567Z,4.80
2022-10-20T03:29:52.190Z,4.60
2022-10-20T03:32:18.767Z,4.80
2022-10-20T03:34:46.610Z,4.53
2022-10-20T03:37:13.160Z,5.43
2022-10-20T03:39:39.747Z,4.87
2022-10-20T03:42:06.443Z,4.73
2022-10-20T03:44:33.080Z,4.70
2022-10-20T03:47:00.195Z,4.47
2022-10-20T03:49:26.870Z,4.93
2022-10-20T03:51:53.463Z,4.80
2022-10-20T03:54:20.022Z,4.50
2022-10-20T03:56:46.664Z,4.73
2022-10-20T03:59:13.356Z,4.93
2022-10-20T04:01:44.147Z,4.47
2022-10-20T04:04:12.329Z,4.63
2022-10-20T04:06:38.919Z,4.77
2022-10-20T04:09:05.929Z,4.83
2022-10-20T04:11:33.060Z,4.43
2022-10-20T04:13:59.838Z,4.70
2022-10-20T04:16:26.454Z,4.97
2022-10-20T04:18:53.173Z,4.70
2022-10-20T04:21:19.785Z,4.67
2022-10-20T04:23:46.397Z,4.87
2022-10-20T04:26:15.843Z,4.67
2022-10-20T04:28:42.736Z,4.70
2022-10-20T04:31:09.775Z,4.57
2022-10-20T04:33:37.928Z,4.70
2022-10-20T04:36:07.561Z,4.80
2022-10-20T04:38:36.106Z,4.70
2022-10-20T04:41:04.859Z,4.73
2022-10-20T04:43:34.315Z,4.40
2022-10-20T04:46:05.484Z,4.77
2022-10-20T04:48:35.931Z,4.00
2022-10-20T04:51:11.051Z,4.13
2022-10-20T04:53:38.344Z,4.60
2022-10-20T04:56:06.659Z,4.47
2022-10-20T04:58:33.726Z,4.60
2022-10-20T05:01:09.411Z,4.37
2022-10-20T05:03:36.644Z,4.53
2022-10-20T05:06:17.858Z,4.50
2022-10-20T05:08:47.110Z,4.43
2022-10-20T05:11:14.831Z,4.40
2022-10-20T05:13:42.023Z,4.20
2022-10-20T05:16:09.719Z,4.60
2022-10-20T05:18:36.960Z,3.90
2022-10-20T05:21:13.228Z,4.63
2022-10-20T05:23:40.422Z,4.37
2022-10-20T05:26:18.264Z,4.67
2022-10-20T05:28:50.287Z,4.80
2022-10-20T05:31:20.890Z,5.07
2022-10-20T05:33:50.242Z,5.30
2022-10-20T05:36:21.585Z,4.17
2022-10-20T05:38:50.285Z,4.63
2022-10-20T05:41:19.728Z,4.63
2022-10-20T05:43:52.554Z,4.33
2022-10-20T05:46:19.868Z,4.30
2022-10-20T05:48:46.906Z,5.00
2022-10-20T05:51:16.322Z,4.93
2022-10-20T05:53:44.043Z,4.53
2022-10-20T05:56:13.628Z,5.17
2022-10-20T05:58:42.021Z,4.83
2022-10-20T06:01:09.708Z,4.83
2022-10-20T06:03:37.047Z,4.50
2022-10-20T06:06:04.325Z,4.90
2022-10-20T06:08:32.488Z,5.40
2022-10-20T06:11:04.694Z,4.67
2022-10-20T06:13:32.905Z,5.20
2022-10-20T06:16:08.295Z,4.77
2022-10-20T06:18:35.685Z,4.90
2022-10-20T06:21:03.850Z,5.37
2022-10-20T06:23:30.472Z,5.00
2022-10-20T06:26:02.082Z,5.07
2022-10-20T06:28:31.027Z,4.77
2022-10-20T06:30:57.676Z,5.37
2022-10-20T06:33:24.965Z,5.10
2022-10-20T06:35:51.476Z,5.13
2022-10-20T06:38:18.043Z,5.60
2022-10-20T06:40:44.569Z,5.57
2022-10-20T06:43:12.843Z,5.27
2022-10-20T06:45:39.525Z,5.13
2022-10-20T06:48:06.162Z,5.53
2022-10-20T06:50:34.311Z,4.93
2022-10-20T06:53:00.898Z,5.50
2022-10-20T06:55:27.724Z,5.40
2022-10-20T06:57:54.535Z,5.37
2022-10-20T07:00:21.147Z,5.20
2022-10-20T07:02:47.759Z,5.47
2022-10-20T07:05:17.525Z,5.13
2022-10-20T07:07:44.100Z,5.53
2022-10-20T07:10:10.721Z,5.33
2022-10-20T07:12:37.665Z,5.30
2022-10-20T07:15:05.973Z,5.40
2022-10-20T07:17:32.627Z,5.43
2022-10-20T07:19:59.204Z,5.63
2022-10-20T07:22:26.327Z,5.40
2022-10-20T07:24:53.998Z,5.20
2022-10-20T07:27:20.947Z,5.67
2022-10-20T07:29:47.475Z,5.50
2022-10-20T07:32:14.128Z,5.80
2022-10-20T07:34:42.164Z,5.50
2022-10-20T07:37:08.835Z,5.40
2022-10-20T07:39:35.599Z,5.60
2022-10-20T07:42:05.328Z,5.70
2022-10-20T07:44:31.904Z,5.77
2022-10-20T07:46:58.478Z,5.60
2022-10-20T07:49:43.404Z,6.27
2022-10-20T07:52:11.714Z,6.13
2022-10-20T07:54:38.344Z,5.70
2022-10-20T07:57:04.957Z,5.80
2022-10-20T07:59:31.527Z,6.10
2022-10-20T08:02:00.085Z,6.47
2022-10-20T08:04:27.709Z,5.60
2022-10-20T08:06:54.437Z,5.70
2022-10-20T08:09:21.128Z,5.50
2022-10-20T08:11:51.378Z,5.67
2022-10-20T08:14:21.089Z,5.90
2022-10-20T08:16:52.420Z,5.90
2022-10-20T08:19:49.110Z,6.47
2022-10-20T08:22:13.740Z,6.27
2022-10-20T08:24:40.378Z,5.90
2022-10-20T08:27:09.083Z,5.80
2022-10-20T08:29:36.699Z,5.57
2022-10-20T08:32:03.492Z,5.67
2022-10-20T08:34:30.349Z,6.20
2022-10-20T08:36:58.871Z,5.87
2022-10-20T08:39:25.440Z,5.60
2022-10-20T08:42:07.613Z,6.20
2022-10-20T08:44:36.506Z,6.17
2022-10-20T08:47:11.947Z,5.67
2022-10-20T08:49:38.796Z,5.47
2022-10-20T08:52:12.816Z,5.57
2022-10-20T08:54:39.951Z,6.10
2022-10-20T08:57:24.909Z,5.80
2022-10-20T08:59:55.253Z,5.80
2022-10-20T09:02:22.382Z,5.77
2022-10-20T09:05:00.658Z,5.53
2022-10-20T09:07:31.886Z,5.40
2022-10-20T09:10:04.484Z,6.37
2022-10-20T09:12:33.248Z,5.87
2022-10-20T09:14:59.815Z,5.77
2022-10-20T09:17:26.439Z,6.33
2022-10-20T09:19:57.167Z,5.87
2022-10-20T09:22:26.131Z,6.13
2022-10-20T09:24:57.339Z,6.10
2022-10-20T09:27:39.798Z,6.03
2022-10-20T09:30:31.216Z,6.93
2022-10-20T09:32:57.981Z,6.47
2022-10-20T09:35:30.085Z,5.40
2022-10-20T09:38:01.469Z,6.20
2022-10-20T09:40:28.554Z,6.47
2022-10-20T09:43:04.710Z,6.83
2022-10-20T09:45:35.005Z,7.00
2022-10-20T09:48:24.148Z,6.57
2022-10-20T09:50:56.032Z,6.43
2022-10-20T09:53:34.540Z,7.03
2022-10-20T09:56:01.564Z,5.97
2022-10-20T09:58:42.105Z,6.43
2022-10-20T10:01:11.925Z,7.10
2022-10-20T10:03:50.790Z,7.00
2022-10-20T10:06:28.948Z,8.03
2022-10-20T10:08:58.572Z,7.83
2022-10-20T10:11:36.415Z,6.90
2022-10-20T10:14:07.226Z,7.70
2022-10-20T10:16:42.639Z,7.57
2022-10-20T10:19:18.239Z,7.60
2022-10-20T10:22:04.411Z,7.80
2022-10-20T10:24:41.803Z,7.60
2022-10-20T10:27:36.278Z,7.90
2022-10-20T10:30:28.591Z,7.50
2022-10-20T10:32:57.151Z,8.20
2022-10-20T10:35:33.763Z,8.27
2022-10-20T10:38:00.898Z,8.50
2022-10-20T10:40:41.975Z,7.90
2022-10-20T10:43:30.266Z,9.30
2022-10-20T10:46:01.541Z,8.17
2022-10-20T10:48:40.803Z,8.87
2022-10-20T10:51:36.375Z,8.80
2022-10-20T10:54:10.904Z,8.87
2022-10-20T10:56:49.639Z,8.50
2022-10-20T10:59:33.881Z,9.40
2022-10-20T11:02:18.639Z,8.47
2022-10-20T11:05:20.388Z,9.63
2022-10-20T11:08:13.100Z,9.13
2022-10-20T11:10:55.673Z,9.10
2022-10-20T11:13:57.672Z,9.10
2022-10-20T11:16:40.531Z,8.70
2022-10-20T11:19:13.203Z,9.63
2022-10-20T11:21:55.033Z,10.10
2022-10-20T11:24:40.879Z,10.33
2022-10-20T11:27:15.904Z,10.03
2022-10-20T11:29:49.853Z,9.70
2022-10-20T11:32:27.518Z,9.77
2022-10-20T11:35:12.640Z,9.83
2022-10-20T11:37:51.769Z,10.33
2022-10-20T11:40:32.116Z,9.47
2022-10-20T11:43:01.813Z,10.30
2022-10-20T11:45:36.005Z,9.00
2022-10-20T11:48:34.212Z,9.63
2022-10-20T11:51:13.971Z,9.73
2022-10-20T11:54:06.661Z,10.73
2022-10-20T11:56:55.921Z,10.40
2022-10-20T12:00:00.171Z,11.30
2022-10-20T12:02:42.147Z,10.47
2022-10-20T12:05:30.206Z,10.50
2022-10-20T12:08:31.129Z,10.73
2022-10-20T12:11:12.981Z,10.70
2022-10-20T12:14:14.810Z,10.80
2022-10-20T12:16:53.963Z,9.73
2022-10-20T12:19:32.294Z,10.33
2022-10-20T12:22:14.637Z,11.13
2022-10-20T12:25:01.401Z,10.83
2022-10-20T12:27:32.770Z,11.47
2022-10-20T12:30:25.045Z,11.00
2022-10-20T12:33:00.840Z,11.07
2022-10-20T12:35:30.992Z,10.30
2022-10-20T12:38:04.180Z,10.67
2022-10-20T12:40:34.609Z,9.77
2022-10-20T12:43:01.264Z,9.60
2022-10-20T12:45:40.802Z,9.30
2022-10-20T12:48:18.392Z,10.40
2022-10-20T12:50:47.841Z,9.17
2022-10-20T12:53:17.398Z,10.43
2022-10-20T12:55:56.041Z,9.90
2022-10-20T12:58:22.574Z,10.33
2022-10-20T13:00:52.019Z,9.93
2022-10-20T13:03:48.138Z,10.70
2022-10-20T13:06:40.534Z,10.07
2022-10-20T13:09:09.054Z,10.50
2022-10-20T13:11:35.586Z,10.47
2022-10-20T13:14:16.061Z,10.23
2022-10-20T13:16:51.873Z,10.03
2022-10-20T13:19:24.423Z,10.50
2022-10-20T13:21:51.654Z,10.37
2022-10-20T13:24:28.121Z,10.13
2022-10-20T13:26:57.703Z,10.33
2022-10-20T13:29:33.477Z,10.80
2022-10-20T13:32:06.255Z,10.27
2022-10-20T13:35:03.772Z,10.30
2022-10-20T13:37:59.404Z,9.87
2022-10-20T13:40:43.095Z,10.17
2022-10-20T13:43:27.838Z,9.20
2022-10-20T13:46:11.590Z,9.73
2022-10-20T13:48:50.579Z,10.00
2022-10-20T13:51:22.419Z,9.83
2022-10-20T13:53:53.044Z,9.60
2022-10-20T13:56:34.229Z,9.80
2022-10-20T13:59:05.748Z,10.43
2022-10-20T14:01:37.025Z,10.47
2022-10-20T14:04:30.299Z,9.93
2022-10-20T14:07:06.046Z,9.63
2022-10-20T14:09:32.703Z,9.93
2022-10-20T14:12:06.472Z,10.07
2022-10-20T14:14:33.583Z,10.47
2022-10-20T14:17:06.752Z,10.60
2022-10-20T14:19:34.264Z,9.97
2022-10-20T14:22:17.618Z,9.90
2022-10-20T14:24:47.285Z,10.50
2022-10-20T14:27:30.687Z,10.33
2022-10-20T14:29:58.337Z,10.37
2022-10-20T14:32:27.720Z,10.67
2022-10-20T14:34:58.351Z,9.40
2022-10-20T14:37:51.008Z,9.67
2022-10-20T14:40:21.831Z,10.03
2022-10-20T14:42:49.062Z,9.87
2022-10-20T14:45:21.076Z,9.83
2022-10-20T14:47:49.995Z,10.37
2022-10-20T14:50:37.366Z,9.93
2022-10-20T14:53:25.208Z,10.47
2022-10-20T14:55:51.912Z,10.57
2022-10-20T14:58:31.599Z,10.10
2022-10-20T15:01:33.898Z,10.23
2022-10-20T15:04:30.020Z,9.70
2022-10-20T15:07:21.098Z,11.30
2022-10-20T15:10:04.304Z,11.00
2022-10-20T15:12:38.415Z,10.90
2022-10-20T15:15:11.453Z,10.67
2022-10-20T15:17:39.819Z,11.23
2022-10-20T15:20:34.467Z,11.23
2022-10-20T15:23:03.848Z,10.90
2022-10-20T15:25:53.290Z,11.07
2022-10-20T15:28:29.468Z,10.93
2022-10-20T15:30:58.602Z,11.20
2022-10-20T15:33:25.211Z,11.60
2022-10-20T15:35:53.186Z,12.23
2022-10-20T15:38:20.463Z,12.13
2022-10-20T15:40:47.522Z,11.13
2022-10-20T15:43:19.608Z,11.47
2022-10-20T15:45:53.884Z,11.20
2022-10-20T15:48:23.133Z,10.77
2022-10-20T15:50:49.870Z,12.13
2022-10-20T15:53:18.426Z,12.17
2022-10-20T15:55:45.621Z,11.43
2022-10-20T15:58:12.625Z,11.90
2022-10-20T16:00:39.283Z,12.70
2022-10-20T16:03:06.783Z,12.00
2022-10-20T16:05:33.980Z,11.80
2022-10-20T16:08:00.666Z,12.03
2022-10-20T16:10:29.597Z,11.73
2022-10-20T16:12:58.017Z,12.00
2022-10-20T16:15:30.555Z,12.10
2022-10-20T16:17:58.489Z,11.93
2022-10-20T16:20:25.167Z,11.93
2022-10-20T16:22:51.858Z,12.37
2022-10-20T16:25:18.670Z,12.03
2022-10-20T16:27:45.629Z,12.67
2022-10-20T16:30:12.257Z,12.60
2022-10-20T16:32:40.637Z,11.77
2022-10-20T16:35:07.739Z,12.27
2022-10-20T16:37:36.500Z,12.40
2022-10-20T16:40:04.323Z,12.13
2022-10-20T16:42:31.290Z,12.17
2022-10-20T16:44:58.644Z,12.67
2022-10-20T16:47:26.184Z,12.93
2022-10-20T16:49:53.142Z,12.70
2022-10-20T16:52:20.809Z,13.73
2022-10-20T16:54:48.420Z,11.97
2022-10-20T16:57:15.517Z,12.97
2022-10-20T16:59:43.295Z,13.57
2022-10-20T17:02:12.788Z,13.10
2022-10-20T17:04:39.473Z,12.67
2022-10-20T17:07:06.156Z,13.17
2022-10-20T17:09:32.727Z,13.33
2022-10-20T17:11:59.340Z,13.63
2022-10-20T17:14:27.016Z,13.57
2022-10-20T17:16:53.719Z,13.27
2022-10-20T17:19:20.316Z,13.73
2022-10-20T17:21:51.283Z,12.63
2022-10-20T17:24:20.444Z,12.77
2022-10-20T17:26:47.310Z,13.30
2022-10-20T17:29:13.966Z,13.33
2022-10-20T17:31:40.528Z,12.50
2022-10-20T17:34:07.242Z,12.97
2022-10-20T17:36:33.881Z,12.73
2022-10-20T17:39:03.725Z,13.07
2022-10-20T17:41:30.414Z,12.90
2022-10-20T17:44:00.706Z,12.53
2022-10-20T17:46:27.647Z,13.10
2022-10-20T17:48:54.299Z,12.53
2022-10-20T17:51:27.737Z,12.30
2022-10-20T17:53:58.094Z,12.87
2022-10-20T17:56:27.634Z,12.17
2022-10-20T17:58:55.710Z,12.93
2022-10-20T18:01:24.018Z,12.17
2022-10-20T18:03:57.144Z,12.70
2022-10-20T18:06:28.894Z,12.67
2022-10-20T18:09:03.927Z,12.50
2022-10-20T18:11:32.436Z,12.57
2022-10-20T18:14:00.076Z,12.10
2022-10-20T18:16:29.055Z,12.80
2022-10-20T18:18:59.605Z,13.27
2022-10-20T18:21:28.742Z,13.17
2022-10-20T18:24:02.219Z,12.20
2022-10-20T18:26:32.460Z,12.47
2022-10-20T18:29:01.761Z,12.13
2022-10-20T18:31:30.718Z,13.07
2022-10-20T18:34:04.063Z,12.70
2022-10-20T18:36:33.350Z,12.53
2022-10-20T18:39:00.025Z,12.23
2022-10-20T18:41:33.036Z,13.60
2022-10-20T18:44:05.482Z,12.30
2022-10-20T18:46:34.327Z,12.93
2022-10-20T18:49:03.445Z,11.70
2022-10-20T18:51:31.936Z,12.63
2022-10-20T18:53:59.892Z,12.60
2022-10-20T18:56:29.203Z,12.93
2022-10-20T18:58:58.093Z,12.87
2022-10-20T19:01:31.402Z,13.37
2022-10-20T19:03:58.533Z,12.80
2022-10-20T19:06:25.052Z,12.93
2022-10-20T19:08:59.128Z,13.47
2022-10-20T19:11:30.979Z,13.07
2022-10-20T19:13:59.933Z,12.53
2022-10-20T19:16:29.057Z,12.20
2022-10-20T19:18:58.133Z,13.23
2022-10-20T19:21:26.224Z,13.13
2022-10-20T19:24:04.252Z,12.73
2022-10-20T19:27:24.474Z,12.40
2022-10-20T19:29:44.285Z,12.47
2022-10-20T19:32:12.136Z,12.73
2022-10-20T19:34:40.389Z,12.13
2022-10-20T19:37:08.016Z,12.50
2022-10-20T19:39:39.091Z,12.63
2022-10-20T19:42:07.049Z,12.53
2022-10-20T19:44:34.240Z,12.07
2022-10-20T19:47:02.630Z,12.17
2022-10-20T19:49:29.332Z,12.60
2022-10-20T19:51:56.332Z,12.43
2022-10-20T19:54:24.038Z,12.53
2022-10-20T19:56:51.503Z,12.67
2022-10-20T19:59:18.024Z,14.23
2022-10-20T20:01:44.831Z,13.43
2022-10-20T20:04:12.118Z,12.93
2022-10-20T20:06:38.812Z,13.40
2022-10-20T20:09:08.191Z,13.83
2022-10-20T20:11:36.463Z,13.77
2022-10-20T20:14:13.422Z,13.77
2022-10-20T20:16:40.430Z,13.70
2022-10-20T20:19:07.514Z,14.77
2022-10-20T20:21:36.091Z,14.33
2022-10-20T20:24:04.433Z,14.60
2022-10-20T20:26:35.915Z,13.73
2022-10-20T20:29:03.752Z,14.47
2022-10-20T20:31:30.363Z,14.37
2022-10-20T20:33:57.547Z,14.07
2022-10-20T20:36:28.208Z,14.63
2022-10-20T20:38:59.449Z,15.40
2022-10-20T20:41:28.259Z,15.27
2022-10-20T20:43:55.154Z,14.03
2022-10-20T20:46:23.467Z,14.40
2022-10-20T20:48:50.615Z,14.03
2022-10-20T20:51:17.250Z,13.70
2022-10-20T20:53:44.257Z,15.20
2022-10-20T20:56:13.144Z,13.97
2022-10-20T20:58:45.315Z,14.57
2022-10-20T21:01:39.960Z,14.33
2022-10-20T21:04:11.145Z,15.07
2022-10-20T21:07:01.129Z,14.57
2022-10-20T21:09:29.090Z,14.47
2022-10-20T21:11:55.687Z,14.77
2022-10-20T21:14:22.786Z,14.77
2022-10-20T21:16:49.360Z,13.87
2022-10-20T21:19:16.869Z,14.97
2022-10-20T21:21:50.539Z,14.17
2022-10-20T21:24:18.443Z,13.50
2022-10-20T21:26:45.161Z,14.73
2022-10-20T21:29:11.813Z,15.00
2022-10-20T21:31:39.331Z,14.20
2022-10-20T21:34:06.058Z,14.10
2022-10-20T21:36:36.137Z,13.73
2022-10-20T21:39:05.768Z,14.20
2022-10-20T21:41:35.373Z,14.03
2022-10-20T21:44:04.093Z,14.50
2022-10-20T21:46:47.512Z,14.50
2022-10-20T21:49:18.213Z,13.33
2022-10-20T21:51:52.425Z,14.00
2022-10-20T21:54:27.072Z,13.93
2022-10-20T21:56:55.129Z,14.27
2022-10-20T21:59:30.546Z,13.77
2022-10-20T22:02:00.121Z,14.63
2022-10-20T22:04:29.205Z,13.70
2022-10-20T22:06:56.474Z,13.20
2022-10-20T22:09:23.970Z,13.37
2022-10-20T22:11:55.154Z,12.10
2022-10-20T22:14:22.321Z,14.47
2022-10-20T22:16:49.009Z,13.10
2022-10-20T22:19:23.001Z,13.77
2022-10-20T22:21:51.006Z,14.13
2022-10-20T22:24:18.800Z,14.13
2022-10-20T22:26:46.207Z,13.50
2022-10-20T22:29:13.142Z,13.23
2022-10-20T22:31:41.870Z,13.37
2022-10-20T22:34:10.156Z,13.93
2022-10-20T22:36:39.401Z,12.10
2022-10-20T22:39:06.966Z,12.33
2022-10-20T22:41:34.399Z,11.47
2022-10-20T22:44:01.001Z,11.47
2022-10-20T22:46:27.731Z,11.97
2022-10-20T22:48:55.185Z,12.23
2022-10-20T22:51:21.955Z,11.57
2022-10-20T22:53:48.649Z,11.17
2022-10-20T22:56:21.365Z,11.60
2022-10-20T22:58:48.898Z,11.00
2022-10-20T23:01:18.353Z,11.43
2022-10-20T23:03:48.259Z,10.50
2022-10-20T23:06:20.810Z,10.37
2022-10-20T23:08:50.017Z,10.87
2022-10-20T23:11:17.729Z,10.17
2022-10-20T23:13:45.041Z,10.67
2022-10-20T23:16:12.083Z,10.00
2022-10-20T23:18:38.977Z,10.27
2022-10-20T23:21:05.846Z,10.53
2022-10-20T23:23:35.427Z,10.17
2022-10-20T23:26:04.515Z,10.70
2022-10-20T23:28:31.986Z,10.83
2022-10-20T23:31:15.139Z,10.60
2022-10-20T23:33:43.419Z,10.67
2022-10-20T23:36:10.811Z,10.67
2022-10-20T23:38:39.134Z,10.80
2022-10-20T23:41:06.087Z,10.83
2022-10-20T23:43:33.204Z,10.27
2022-10-20T23:46:00.376Z,10.50
2022-10-20T23:48:27.897Z,10.70
2022-10-20T23:50:54.988Z,10.23
2022-10-20T23:53:21.853Z,9.73
2022-10-20T23:55:48.604Z,10.53
2022-10-20T23:58:15.516Z,9.40
